createdAt,value
2022-09-25T04:00:31.280Z,994.69
2022-09-25T04:05:31.211Z,994.76
2022-09-25T04:10:31.158Z,994.74
2022-09-25T04:15:31.585Z,994.63
2022-09-25T04:20:38.132Z,994.66
2022-09-25T04:25:30.995Z,994.75
2022-09-25T04:30:30.940Z,994.70
2022-09-25T04:35:30.887Z,994.67
2022-09-25T04:40:30.887Z,994.72
2022-09-25T04:45:30.781Z,994.68
2022-09-25T04:50:30.725Z,994.58
2022-09-25T04:55:30.672Z,994.61
2022-09-25T05:00:30.733Z,994.71
2022-09-25T05:05:30.645Z,994.71
2022-09-25T05:10:30.538Z,994.82
2022-09-25T05:15:30.438Z,994.78
2022-09-25T05:20:30.425Z,994.74
2022-09-25T05:25:30.343Z,994.72
2022-09-25T05:30:30.291Z,994.76
2022-09-25T05:35:30.233Z,994.77
2022-09-25T05:40:30.258Z,994.80
2022-09-25T05:45:30.130Z,994.79
2022-09-25T05:50:30.077Z,994.82
2022-09-25T05:55:30.017Z,994.88
2022-09-25T06:00:29.987Z,994.85
2022-09-25T06:05:29.916Z,994.91
2022-09-25T06:10:29.862Z,994.91
2022-09-25T06:15:29.836Z,994.85
2022-09-25T06:20:29.773Z,994.91
2022-09-25T06:25:29.697Z,994.86
2022-09-25T06:30:29.670Z,995.00
2022-09-25T06:35:29.619Z,995.01
2022-09-25T06:40:29.644Z,995.12
2022-09-25T06:45:29.469Z,995.17
2022-09-25T06:50:29.431Z,995.18
2022-09-25T06:55:29.372Z,995.21
2022-09-25T07:00:29.338Z,995.22
2022-09-25T07:05:29.260Z,995.18
2022-09-25T07:10:29.204Z,995.17
2022-09-25T07:15:29.150Z,995.20
2022-09-25T07:20:29.116Z,995.27
2022-09-25T07:25:29.040Z,995.37
2022-09-25T07:30:28.987Z,995.35
2022-09-25T07:35:28.926Z,995.40
2022-09-25T07:40:29.030Z,995.43
2022-09-25T07:45:28.819Z,995.33
2022-09-25T07:50:28.755Z,995.43
2022-09-25T07:55:28.732Z,995.27
2022-09-25T08:00:28.655Z,995.26
2022-09-25T08:05:28.592Z,995.34
2022-09-25T08:10:28.538Z,995.40
2022-09-25T08:15:28.622Z,995.29
2022-09-25T08:20:28.444Z,995.38
2022-09-25T08:25:28.380Z,995.53
2022-09-25T08:30:28.318Z,995.44
2022-09-25T08:35:28.291Z,995.47
2022-09-25T08:40:28.316Z,995.40
2022-09-25T08:45:28.188Z,995.53
2022-09-25T08:50:28.102Z,995.49
2022-09-25T08:55:28.092Z,995.31
2022-09-25T09:00:28.095Z,995.36
2022-09-25T09:05:27.941Z,995.42
2022-09-25T09:10:27.883Z,995.37
2022-09-25T09:15:27.905Z,995.36
2022-09-25T09:20:27.790Z,995.43
2022-09-25T09:25:27.723Z,995.43
2022-09-25T09:30:27.665Z,995.36
2022-09-25T09:35:33.487Z,995.39
2022-09-25T09:40:28.705Z,995.37
2022-09-25T09:45:27.498Z,995.28
2022-09-25T09:50:27.442Z,995.25
2022-09-25T09:55:27.385Z,995.21
2022-09-25T10:00:27.500Z,995.24
2022-09-25T10:05:27.367Z,995.10
2022-09-25T10:10:27.230Z,995.17
2022-09-25T10:15:27.230Z,995.17
2022-09-25T10:20:34.228Z,995.18
2022-09-25T10:25:27.071Z,995.11
2022-09-25T10:30:27.028Z,995.15
2022-09-25T10:35:26.947Z,995.08
2022-09-25T10:40:27.092Z,995.12
2022-09-25T10:45:26.831Z,995.11
2022-09-25T10:50:26.910Z,995.13
2022-09-25T10:55:26.753Z,995.07
2022-09-25T11:00:26.804Z,995.13
2022-09-25T11:05:26.628Z,995.01
2022-09-25T11:10:26.686Z,994.97
2022-09-25T11:15:26.499Z,995.07
2022-09-25T11:20:26.674Z,995.03
2022-09-25T11:25:26.403Z,994.95
2022-09-25T11:30:26.426Z,994.96
2022-09-25T11:35:26.311Z,994.95
2022-09-25T11:40:26.431Z,994.83
2022-09-25T11:45:26.193Z,994.83
2022-09-25T11:50:26.129Z,994.93
2022-09-25T11:55:26.081Z,994.98
2022-09-25T12:00:26.043Z,994.85
2022-09-25T12:05:25.969Z,994.80
2022-09-25T12:10:25.917Z,994.64
2022-09-25T12:15:25.862Z,994.72
2022-09-25T12:20:25.821Z,994.67
2022-09-25T12:25:25.755Z,994.64
2022-09-25T12:30:25.708Z,994.56
2022-09-25T12:35:25.662Z,994.57
2022-09-25T12:40:25.644Z,994.65
2022-09-25T12:45:25.557Z,994.55
2022-09-25T12:50:25.490Z,994.36
2022-09-25T12:55:25.429Z,994.39
2022-09-25T13:00:25.479Z,994.30
2022-09-25T13:05:25.320Z,994.23
2022-09-25T13:10:25.267Z,994.10
2022-09-25T13:15:25.215Z,994.13
2022-09-25T13:20:25.176Z,994.06
2022-09-25T13:25:25.103Z,994.10
2022-09-25T13:30:25.050Z,994.13
2022-09-25T13:35:24.992Z,994.10
2022-09-25T13:40:25.089Z,994.01
2022-09-25T13:45:24.895Z,993.91
2022-09-25T13:50:24.819Z,993.89
2022-09-25T13:55:24.773Z,993.84
2022-09-25T14:00:24.740Z,993.82
2022-09-25T14:05:24.656Z,993.84
2022-09-25T14:10:24.627Z,993.85
2022-09-25T14:15:24.569Z,993.89
2022-09-25T14:20:24.543Z,993.95
2022-09-25T14:25:24.447Z,993.81
2022-09-25T14:30:24.401Z,993.82
2022-09-25T14:35:24.326Z,993.76
2022-09-25T14:40:24.379Z,993.69
2022-09-25T14:45:24.230Z,993.69
2022-09-25T14:50:24.178Z,993.58
2022-09-25T14:55:24.123Z,993.56
2022-09-25T15:00:24.083Z,993.47
2022-09-25T15:05:24.003Z,993.45
2022-09-25T15:10:23.954Z,993.49
2022-09-25T15:15:23.901Z,993.47
2022-09-25T15:20:23.854Z,993.44
2022-09-25T15:25:23.807Z,993.39
2022-09-25T15:30:23.756Z,993.34
2022-09-25T15:35:23.663Z,993.38
2022-09-25T15:40:23.709Z,993.35
2022-09-25T15:45:23.579Z,993.28
2022-09-25T15:50:23.502Z,993.35
2022-09-25T15:55:23.466Z,993.29
2022-09-25T16:00:23.438Z,993.26
2022-09-25T16:05:23.345Z,993.23
2022-09-25T16:10:23.304Z,993.26
2022-09-25T16:15:23.227Z,993.26
2022-09-25T16:20:30.244Z,993.30
2022-09-25T16:25:23.115Z,993.40
2022-09-25T16:30:23.101Z,993.46
2022-09-25T16:35:23.004Z,993.38
2022-09-25T16:40:23.138Z,993.33
2022-09-25T16:45:23.353Z,993.38
2022-09-25T16:50:22.838Z,993.37
2022-09-25T16:55:22.794Z,993.38
2022-09-25T17:00:22.758Z,993.35
2022-09-25T17:05:22.673Z,993.32
2022-09-25T17:10:22.642Z,993.38
2022-09-25T17:15:22.581Z,993.36
2022-09-25T17:20:22.609Z,993.41
2022-09-25T17:25:22.556Z,993.41
2022-09-25T17:30:22.416Z,993.46
2022-09-25T17:35:22.337Z,993.45
2022-09-25T17:40:22.418Z,993.46
2022-09-25T17:45:22.253Z,993.43
2022-09-25T17:50:22.170Z,993.45
2022-09-25T17:55:22.126Z,993.44
2022-09-25T18:00:22.180Z,993.46
2022-09-25T18:05:22.003Z,993.48
2022-09-25T18:10:21.958Z,993.40
2022-09-25T18:15:21.906Z,993.41
2022-09-25T18:20:21.942Z,993.43
2022-09-25T18:25:21.792Z,993.38
2022-09-25T18:30:21.751Z,993.36
2022-09-25T18:35:21.669Z,993.34
2022-09-25T18:40:21.836Z,993.48
2022-09-25T18:45:21.578Z,993.46
2022-09-25T18:50:21.504Z,993.40
2022-09-25T18:55:21.462Z,993.43
2022-09-25T19:00:21.435Z,993.42
2022-09-25T19:05:21.352Z,993.50
2022-09-25T19:10:21.297Z,993.49
2022-09-25T19:15:21.242Z,993.46
2022-09-25T19:20:21.223Z,993.34
2022-09-25T19:25:22.632Z,993.37
2022-09-25T19:30:21.083Z,993.32
2022-09-25T19:35:21.035Z,993.28
2022-09-25T19:40:21.082Z,993.26
2022-09-25T19:45:20.917Z,993.27
2022-09-25T19:50:20.860Z,993.20
2022-09-25T19:55:20.818Z,993.22
2022-09-25T20:00:20.776Z,993.14
2022-09-25T20:05:20.698Z,993.08
2022-09-25T20:10:20.641Z,993.03
2022-09-25T20:15:20.596Z,992.99
2022-09-25T20:20:20.557Z,992.96
2022-09-25T20:25:20.483Z,993.01
2022-09-25T20:30:20.426Z,992.94
2022-09-25T20:35:20.374Z,992.96
2022-09-25T20:40:20.440Z,992.99
2022-09-25T20:45:20.264Z,992.94
2022-09-25T20:50:20.212Z,992.88
2022-09-25T20:55:20.159Z,992.88
2022-09-25T21:00:20.133Z,992.84
2022-09-25T21:05:20.047Z,992.83
2022-09-25T21:10:19.996Z,992.76
2022-09-25T21:15:19.955Z,992.78
2022-09-25T21:20:19.987Z,992.73
2022-09-25T21:25:19.835Z,992.72
2022-09-25T21:30:19.787Z,992.73
2022-09-25T21:35:19.837Z,992.63
2022-09-25T21:40:19.810Z,992.60
2022-09-25T21:45:19.622Z,992.59
2022-09-25T21:50:19.569Z,992.53
2022-09-25T21:55:19.511Z,992.49
2022-09-25T22:00:19.480Z,992.50
2022-09-25T22:05:19.403Z,992.52
2022-09-25T22:10:19.351Z,992.40
2022-09-25T22:15:19.300Z,992.41
2022-09-25T22:20:19.267Z,992.47
2022-09-25T22:25:19.192Z,992.40
2022-09-25T22:30:19.135Z,992.34
2022-09-25T22:35:19.089Z,992.26
2022-09-25T22:40:19.093Z,992.27
2022-09-25T22:45:19.162Z,992.18
2022-09-25T22:50:18.923Z,992.13
2022-09-25T22:55:18.871Z,992.06
2022-09-25T23:00:18.832Z,991.99
2022-09-25T23:05:18.861Z,991.91
2022-09-25T23:10:18.709Z,991.90
2022-09-25T23:15:18.656Z,991.93
2022-09-25T23:20:18.619Z,991.89
2022-09-25T23:25:18.552Z,991.84
